sensor_id;sensor_type;location;lat;lon;timestamp;P1;durP1;ratioP1;P2;durP2;ratioP2
28170;SDS011;15458;53.346;-1.688;2023-05-10T00:01:21;23.55;;;4.03;;
28170;SDS011;15458;53.346;-1.688;2023-05-10T00:03:46;16.50;;;4.57;;
28170;SDS011;15458;53.346;-1.688;2023-05-10T00:06:12;22.23;;;4.38;;
28170;SDS011;15458;53.346;-1.688;2023-05-10T00:08:38;22.05;;;4.25;;
28170;SDS011;15458;53.346;-1.688;2023-05-10T00:11:03;19.08;;;4.70;;
28170;SDS011;15458;53.346;-1.688;2023-05-10T00:13:29;19.40;;;4.38;;
28170;SDS011;15458;53.346;-1.688;2023-05-10T00:15:55;17.50;;;4.25;;
28170;SDS011;15458;53.346;-1.688;2023-05-10T00:18:20;19.30;;;3.47;;
28170;SDS011;15458;53.346;-1.688;2023-05-10T00:20:46;11.02;;;3.92;;
28170;SDS011;15458;53.346;-1.688;2023-05-10T00:23:12;22.60;;;3.78;;
28170;SDS011;15458;53.346;-1.688;2023-05-10T00:25:37;17.60;;;4.82;;
28170;SDS011;15458;53.346;-1.688;2023-05-10T00:28:03;21.05;;;5.07;;
28170;SDS011;15458;53.346;-1.688;2023-05-10T00:30:29;10.57;;;3.80;;
28170;SDS011;15458;53.346;-1.688;2023-05-10T00:32:54;22.63;;;4.68;;
28170;SDS011;15458;53.346;-1.688;2023-05-10T00:35:20;20.40;;;4.45;;
28170;SDS011;15458;53.346;-1.688;2023-05-10T00:37:46;12.98;;;4.03;;
28170;SDS011;15458;53.346;-1.688;2023-05-10T00:40:12;17.27;;;4.57;;
28170;SDS011;15458;53.346;-1.688;2023-05-10T00:42:38;15.10;;;4.05;;
28170;SDS011;15458;53.346;-1.688;2023-05-10T00:45:04;22.25;;;5.35;;
28170;SDS011;15458;53.346;-1.688;2023-05-10T00:47:30;14.18;;;3.72;;
28170;SDS011;15458;53.346;-1.688;2023-05-10T00:49:56;19.08;;;4.22;;
28170;SDS011;15458;53.346;-1.688;2023-05-10T00:52:22;17.67;;;4.28;;
28170;SDS011;15458;53.346;-1.688;2023-05-10T00:54:49;25.27;;;4.20;;
28170;SDS011;15458;53.346;-1.688;2023-05-10T00:57:17;17.20;;;3.42;;
28170;SDS011;15458;53.346;-1.688;2023-05-10T00:59:43;18.17;;;3.22;;
28170;SDS011;15458;53.346;-1.688;2023-05-10T01:02:09;18.48;;;4.68;;
28170;SDS011;15458;53.346;-1.688;2023-05-10T01:04:36;16.80;;;4.20;;
28170;SDS011;15458;53.346;-1.688;2023-05-10T01:07:02;19.48;;;4.90;;
28170;SDS011;15458;53.346;-1.688;2023-05-10T01:09:28;17.17;;;4.47;;
28170;SDS011;15458;53.346;-1.688;2023-05-10T01:11:54;13.93;;;4.30;;
28170;SDS011;15458;53.346;-1.688;2023-05-10T01:14:20;17.40;;;4.15;;
28170;SDS011;15458;53.346;-1.688;2023-05-10T01:16:47;18.80;;;4.30;;
28170;SDS011;15458;53.346;-1.688;2023-05-10T01:19:25;21.00;;;4.65;;
28170;SDS011;15458;53.346;-1.688;2023-05-10T01:21:57;18.63;;;3.75;;
28170;SDS011;15458;53.346;-1.688;2023-05-10T01:24:59;9.93;;;3.38;;
28170;SDS011;15458;53.346;-1.688;2023-05-10T01:38:59;13.95;;;3.25;;
28170;SDS011;15458;53.346;-1.688;2023-05-10T01:41:42;13.00;;;3.50;;
28170;SDS011;15458;53.346;-1.688;2023-05-10T01:44:18;15.77;;;3.35;;
28170;SDS011;15458;53.346;-1.688;2023-05-10T01:46:48;13.15;;;3.65;;
28170;SDS011;15458;53.346;-1.688;2023-05-10T01:49:23;18.58;;;3.15;;
28170;SDS011;15458;53.346;-1.688;2023-05-10T01:51:52;20.77;;;4.28;;
28170;SDS011;15458;53.346;-1.688;2023-05-10T01:54:22;15.73;;;4.32;;
28170;SDS011;15458;53.346;-1.688;2023-05-10T01:57:00;21.27;;;4.80;;
28170;SDS011;15458;53.346;-1.688;2023-05-10T01:59:30;12.68;;;4.18;;
28170;SDS011;15458;53.346;-1.688;2023-05-10T02:02:05;16.92;;;3.72;;
28170;SDS011;15458;53.346;-1.688;2023-05-10T02:04:32;15.70;;;3.65;;
28170;SDS011;15458;53.346;-1.688;2023-05-10T02:07:00;10.23;;;3.22;;
28170;SDS011;15458;53.346;-1.688;2023-05-10T02:09:26;17.85;;;4.05;;
28170;SDS011;15458;53.346;-1.688;2023-05-10T02:11:54;14.25;;;3.15;;
28170;SDS011;15458;53.346;-1.688;2023-05-10T02:14:23;18.52;;;4.32;;
28170;SDS011;15458;53.346;-1.688;2023-05-10T02:16:51;9.57;;;3.08;;
28170;SDS011;15458;53.346;-1.688;2023-05-10T02:19:18;19.92;;;3.60;;
28170;SDS011;15458;53.346;-1.688;2023-05-10T02:21:45;19.20;;;4.63;;
28170;SDS011;15458;53.346;-1.688;2023-05-10T02:24:12;16.52;;;4.07;;
28170;SDS011;15458;53.346;-1.688;2023-05-10T02:26:39;16.17;;;4.25;;
28170;SDS011;15458;53.346;-1.688;2023-05-10T02:29:06;17.92;;;4.03;;
28170;SDS011;15458;53.346;-1.688;2023-05-10T02:31:33;18.38;;;3.83;;
28170;SDS011;15458;53.346;-1.688;2023-05-10T02:34:00;17.35;;;3.67;;
28170;SDS011;15458;53.346;-1.688;2023-05-10T02:36:27;15.88;;;3.58;;
28170;SDS011;15458;53.346;-1.688;2023-05-10T02:38:53;16.92;;;3.50;;
28170;SDS011;15458;53.346;-1.688;2023-05-10T02:41:20;16.48;;;3.60;;
28170;SDS011;15458;53.346;-1.688;2023-05-10T02:43:49;14.55;;;3.55;;
28170;SDS011;15458;53.346;-1.688;2023-05-10T02:46:17;11.90;;;3.95;;
28170;SDS011;15458;53.346;-1.688;2023-05-10T02:48:43;11.68;;;3.53;;
28170;SDS011;15458;53.346;-1.688;2023-05-10T02:51:09;11.30;;;3.30;;
28170;SDS011;15458;53.346;-1.688;2023-05-10T02:53:40;16.15;;;3.30;;
28170;SDS011;15458;53.346;-1.688;2023-05-10T02:56:11;15.20;;;3.15;;
28170;SDS011;15458;53.346;-1.688;2023-05-10T02:58:40;15.60;;;3.75;;
28170;SDS011;15458;53.346;-1.688;2023-05-10T03:01:05;17.50;;;4.13;;
28170;SDS011;15458;53.346;-1.688;2023-05-10T03:03:32;14.25;;;3.83;;
28170;SDS011;15458;53.346;-1.688;2023-05-10T03:05:58;17.15;;;3.22;;
28170;SDS011;15458;53.346;-1.688;2023-05-10T03:08:24;17.85;;;4.18;;
28170;SDS011;15458;53.346;-1.688;2023-05-10T03:13:28;17.98;;;4.97;;
28170;SDS011;15458;53.346;-1.688;2023-05-10T03:18:41;18.77;;;5.10;;
28170;SDS011;15458;53.346;-1.688;2023-05-10T03:21:10;14.00;;;4.55;;
28170;SDS011;15458;53.346;-1.688;2023-05-10T03:26:26;14.90;;;4.57;;
28170;SDS011;15458;53.346;-1.688;2023-05-10T03:28:53;12.98;;;3.85;;
28170;SDS011;15458;53.346;-1.688;2023-05-10T03:31:19;8.57;;;3.53;;
28170;SDS011;15458;53.346;-1.688;2023-05-10T03:33:47;17.90;;;4.00;;
28170;SDS011;15458;53.346;-1.688;2023-05-10T03:36:13;14.80;;;3.95;;
28170;SDS011;15458;53.346;-1.688;2023-05-10T03:38:39;13.13;;;3.75;;
28170;SDS011;15458;53.346;-1.688;2023-05-10T03:41:05;19.00;;;3.65;;
28170;SDS011;15458;53.346;-1.688;2023-05-10T03:43:30;13.18;;;4.30;;
28170;SDS011;15458;53.346;-1.688;2023-05-10T03:45:56;24.13;;;4.85;;
28170;SDS011;15458;53.346;-1.688;2023-05-10T03:48:21;24.42;;;5.07;;
28170;SDS011;15458;53.346;-1.688;2023-05-10T03:50:47;17.38;;;4.88;;
28170;SDS011;15458;53.346;-1.688;2023-05-10T03:53:14;18.35;;;5.43;;
28170;SDS011;15458;53.346;-1.688;2023-05-10T03:55:40;22.52;;;5.63;;
28170;SDS011;15458;53.346;-1.688;2023-05-10T03:58:06;29.00;;;6.25;;
28170;SDS011;15458;53.346;-1.688;2023-05-10T04:00:31;22.65;;;6.53;;
28170;SDS011;15458;53.346;-1.688;2023-05-10T04:02:57;26.45;;;7.07;;
28170;SDS011;15458;53.346;-1.688;2023-05-10T04:05:23;22.15;;;7.25;;
28170;SDS011;15458;53.346;-1.688;2023-05-10T04:07:49;21.65;;;6.78;;
28170;SDS011;15458;53.346;-1.688;2023-05-10T04:10:15;20.38;;;7.65;;
28170;SDS011;15458;53.346;-1.688;2023-05-10T04:12:41;18.88;;;5.82;;
28170;SDS011;15458;53.346;-1.688;2023-05-10T04:15:07;23.60;;;7.60;;
28170;SDS011;15458;53.346;-1.688;2023-05-10T04:17:33;22.15;;;6.55;;
28170;SDS011;15458;53.346;-1.688;2023-05-10T04:19:59;18.30;;;6.82;;
28170;SDS011;15458;53.346;-1.688;2023-05-10T04:22:24;17.63;;;6.05;;
28170;SDS011;15458;53.346;-1.688;2023-05-10T04:24:50;20.80;;;6.60;;
28170;SDS011;15458;53.346;-1.688;2023-05-10T04:27:16;22.05;;;7.30;;
28170;SDS011;15458;53.346;-1.688;2023-05-10T04:29:41;22.33;;;6.32;;
28170;SDS011;15458;53.346;-1.688;2023-05-10T04:32:07;24.70;;;7.57;;
28170;SDS011;15458;53.346;-1.688;2023-05-10T04:34:35;28.83;;;8.15;;
28170;SDS011;15458;53.346;-1.688;2023-05-10T04:37:01;20.63;;;6.90;;
28170;SDS011;15458;53.346;-1.688;2023-05-10T04:39:26;19.67;;;6.72;;
28170;SDS011;15458;53.346;-1.688;2023-05-10T04:41:52;26.08;;;6.80;;
28170;SDS011;15458;53.346;-1.688;2023-05-10T04:44:17;28.17;;;6.85;;
28170;SDS011;15458;53.346;-1.688;2023-05-10T04:46:43;20.33;;;6.57;;
28170;SDS011;15458;53.346;-1.688;2023-05-10T04:49:09;23.95;;;6.72;;
28170;SDS011;15458;53.346;-1.688;2023-05-10T04:51:34;21.20;;;6.65;;
28170;SDS011;15458;53.346;-1.688;2023-05-10T04:54:00;17.77;;;6.50;;
28170;SDS011;15458;53.346;-1.688;2023-05-10T04:56:25;17.33;;;6.70;;
28170;SDS011;15458;53.346;-1.688;2023-05-10T04:58:51;16.13;;;6.68;;
28170;SDS011;15458;53.346;-1.688;2023-05-10T05:01:17;24.63;;;6.07;;
28170;SDS011;15458;53.346;-1.688;2023-05-10T05:03:42;16.52;;;6.07;;
28170;SDS011;15458;53.346;-1.688;2023-05-10T05:06:08;19.77;;;6.35;;
28170;SDS011;15458;53.346;-1.688;2023-05-10T05:08:33;19.30;;;7.70;;
28170;SDS011;15458;53.346;-1.688;2023-05-10T05:10:59;19.75;;;6.43;;
28170;SDS011;15458;53.346;-1.688;2023-05-10T05:13:25;23.33;;;7.85;;
28170;SDS011;15458;53.346;-1.688;2023-05-10T05:15:50;21.23;;;6.85;;
28170;SDS011;15458;53.346;-1.688;2023-05-10T05:18:16;27.90;;;7.53;;
28170;SDS011;15458;53.346;-1.688;2023-05-10T05:20:42;18.42;;;6.65;;
28170;SDS011;15458;53.346;-1.688;2023-05-10T05:23:07;21.45;;;7.75;;
28170;SDS011;15458;53.346;-1.688;2023-05-10T05:25:33;23.85;;;7.47;;
28170;SDS011;15458;53.346;-1.688;2023-05-10T05:27:59;24.55;;;7.40;;
28170;SDS011;15458;53.346;-1.688;2023-05-10T05:30:24;23.92;;;7.18;;
28170;SDS011;15458;53.346;-1.688;2023-05-10T05:32:50;21.08;;;6.97;;
28170;SDS011;15458;53.346;-1.688;2023-05-10T05:35:16;23.15;;;7.75;;
28170;SDS011;15458;53.346;-1.688;2023-05-10T05:37:41;22.15;;;7.93;;
28170;SDS011;15458;53.346;-1.688;2023-05-10T05:40:07;20.73;;;7.05;;
28170;SDS011;15458;53.346;-1.688;2023-05-10T05:42:33;21.83;;;7.55;;
28170;SDS011;15458;53.346;-1.688;2023-05-10T05:44:59;20.77;;;6.72;;
28170;SDS011;15458;53.346;-1.688;2023-05-10T05:47:24;23.00;;;8.25;;
28170;SDS011;15458;53.346;-1.688;2023-05-10T05:49:50;28.90;;;8.38;;
28170;SDS011;15458;53.346;-1.688;2023-05-10T05:52:16;26.70;;;8.27;;
28170;SDS011;15458;53.346;-1.688;2023-05-10T05:54:41;19.58;;;7.70;;
28170;SDS011;15458;53.346;-1.688;2023-05-10T05:57:07;23.70;;;8.07;;
28170;SDS011;15458;53.346;-1.688;2023-05-10T05:59:33;20.45;;;7.93;;
28170;SDS011;15458;53.346;-1.688;2023-05-10T06:01:59;27.98;;;9.45;;
28170;SDS011;15458;53.346;-1.688;2023-05-10T06:04:25;20.45;;;8.73;;
28170;SDS011;15458;53.346;-1.688;2023-05-10T06:06:51;21.13;;;8.40;;
28170;SDS011;15458;53.346;-1.688;2023-05-10T06:09:17;24.27;;;9.15;;
28170;SDS011;15458;53.346;-1.688;2023-05-10T06:11:42;26.73;;;9.07;;
28170;SDS011;15458;53.346;-1.688;2023-05-10T06:14:08;28.60;;;10.55;;
28170;SDS011;15458;53.346;-1.688;2023-05-10T06:16:34;22.88;;;8.75;;
28170;SDS011;15458;53.346;-1.688;2023-05-10T06:19:00;24.15;;;8.85;;
28170;SDS011;15458;53.346;-1.688;2023-05-10T06:21:25;23.80;;;9.40;;
28170;SDS011;15458;53.346;-1.688;2023-05-10T06:23:51;29.23;;;9.07;;
28170;SDS011;15458;53.346;-1.688;2023-05-10T06:26:17;16.60;;;7.88;;
28170;SDS011;15458;53.346;-1.688;2023-05-10T06:28:45;25.75;;;8.98;;
28170;SDS011;15458;53.346;-1.688;2023-05-10T06:31:11;23.40;;;9.05;;
28170;SDS011;15458;53.346;-1.688;2023-05-10T06:33:40;26.45;;;8.35;;
28170;SDS011;15458;53.346;-1.688;2023-05-10T06:36:06;24.88;;;9.25;;
28170;SDS011;15458;53.346;-1.688;2023-05-10T06:38:34;27.67;;;8.75;;
28170;SDS011;15458;53.346;-1.688;2023-05-10T06:41:00;18.95;;;7.50;;
28170;SDS011;15458;53.346;-1.688;2023-05-10T06:43:26;29.73;;;9.10;;
28170;SDS011;15458;53.346;-1.688;2023-05-10T06:45:53;24.30;;;7.95;;
28170;SDS011;15458;53.346;-1.688;2023-05-10T06:48:19;21.70;;;7.53;;
28170;SDS011;15458;53.346;-1.688;2023-05-10T06:50:45;18.17;;;7.13;;
28170;SDS011;15458;53.346;-1.688;2023-05-10T06:53:10;26.17;;;7.70;;
28170;SDS011;15458;53.346;-1.688;2023-05-10T06:55:37;25.45;;;7.60;;
28170;SDS011;15458;53.346;-1.688;2023-05-10T06:58:02;25.98;;;7.05;;
28170;SDS011;15458;53.346;-1.688;2023-05-10T07:00:28;16.80;;;7.82;;
28170;SDS011;15458;53.346;-1.688;2023-05-10T07:02:53;20.85;;;7.15;;
28170;SDS011;15458;53.346;-1.688;2023-05-10T07:05:20;16.05;;;6.68;;
28170;SDS011;15458;53.346;-1.688;2023-05-10T07:07:45;16.23;;;6.38;;
28170;SDS011;15458;53.346;-1.688;2023-05-10T07:10:11;14.93;;;5.65;;
28170;SDS011;15458;53.346;-1.688;2023-05-10T07:12:37;13.80;;;5.63;;
28170;SDS011;15458;53.346;-1.688;2023-05-10T07:15:04;17.20;;;4.95;;
28170;SDS011;15458;53.346;-1.688;2023-05-10T07:17:31;14.38;;;4.53;;
28170;SDS011;15458;53.346;-1.688;2023-05-10T07:19:58;19.75;;;4.10;;
28170;SDS011;15458;53.346;-1.688;2023-05-10T07:22:27;13.98;;;4.55;;
28170;SDS011;15458;53.346;-1.688;2023-05-10T07:24:52;9.93;;;3.20;;
28170;SDS011;15458;53.346;-1.688;2023-05-10T07:27:18;10.82;;;3.10;;
28170;SDS011;15458;53.346;-1.688;2023-05-10T07:29:44;14.02;;;3.90;;
28170;SDS011;15458;53.346;-1.688;2023-05-10T07:32:10;10.70;;;3.80;;
28170;SDS011;15458;53.346;-1.688;2023-05-10T07:34:35;16.13;;;4.18;;
28170;SDS011;15458;53.346;-1.688;2023-05-10T07:37:01;14.95;;;6.65;;
28170;SDS011;15458;53.346;-1.688;2023-05-10T07:39:27;11.23;;;5.60;;
28170;SDS011;15458;53.346;-1.688;2023-05-10T07:41:53;18.45;;;6.80;;
28170;SDS011;15458;53.346;-1.688;2023-05-10T07:44:20;15.38;;;6.85;;
28170;SDS011;15458;53.346;-1.688;2023-05-10T07:46:46;18.25;;;6.75;;
28170;SDS011;15458;53.346;-1.688;2023-05-10T07:49:13;14.95;;;5.10;;
28170;SDS011;15458;53.346;-1.688;2023-05-10T07:51:38;13.63;;;3.90;;
28170;SDS011;15458;53.346;-1.688;2023-05-10T07:54:04;13.85;;;4.32;;
28170;SDS011;15458;53.346;-1.688;2023-05-10T07:56:30;14.85;;;3.72;;
28170;SDS011;15458;53.346;-1.688;2023-05-10T07:58:57;7.13;;;3.20;;
28170;SDS011;15458;53.346;-1.688;2023-05-10T08:01:24;16.75;;;4.00;;
28170;SDS011;15458;53.346;-1.688;2023-05-10T08:03:50;10.98;;;2.72;;
28170;SDS011;15458;53.346;-1.688;2023-05-10T08:06:17;13.48;;;3.15;;
28170;SDS011;15458;53.346;-1.688;2023-05-10T08:08:43;18.73;;;3.83;;
28170;SDS011;15458;53.346;-1.688;2023-05-10T08:11:14;10.30;;;2.92;;
28170;SDS011;15458;53.346;-1.688;2023-05-10T08:13:40;14.25;;;3.30;;
28170;SDS011;15458;53.346;-1.688;2023-05-10T08:16:06;9.32;;;3.17;;
28170;SDS011;15458;53.346;-1.688;2023-05-10T08:18:32;10.23;;;3.10;;
28170;SDS011;15458;53.346;-1.688;2023-05-10T08:20:57;10.70;;;3.35;;
28170;SDS011;15458;53.346;-1.688;2023-05-10T08:23:23;11.80;;;3.88;;
28170;SDS011;15458;53.346;-1.688;2023-05-10T08:25:49;11.25;;;2.80;;
28170;SDS011;15458;53.346;-1.688;2023-05-10T08:28:14;12.80;;;3.17;;
28170;SDS011;15458;53.346;-1.688;2023-05-10T08:30:40;13.90;;;3.20;;
28170;SDS011;15458;53.346;-1.688;2023-05-10T08:33:05;13.38;;;3.58;;
28170;SDS011;15458;53.346;-1.688;2023-05-10T08:35:31;8.13;;;2.30;;
28170;SDS011;15458;53.346;-1.688;2023-05-10T08:37:58;8.65;;;2.28;;
28170;SDS011;15458;53.346;-1.688;2023-05-10T08:40:23;9.98;;;2.53;;
28170;SDS011;15458;53.346;-1.688;2023-05-10T08:42:51;9.57;;;2.28;;
28170;SDS011;15458;53.346;-1.688;2023-05-10T08:45:48;11.55;;;2.30;;
28170;SDS011;15458;53.346;-1.688;2023-05-10T08:48:16;15.48;;;3.13;;
28170;SDS011;15458;53.346;-1.688;2023-05-10T08:50:44;10.00;;;2.20;;
28170;SDS011;15458;53.346;-1.688;2023-05-10T08:53:13;10.07;;;2.20;;
28170;SDS011;15458;53.346;-1.688;2023-05-10T08:55:41;18.38;;;2.60;;
28170;SDS011;15458;53.346;-1.688;2023-05-10T08:58:07;11.80;;;2.28;;
28170;SDS011;15458;53.346;-1.688;2023-05-10T09:00:34;9.25;;;2.30;;
28170;SDS011;15458;53.346;-1.688;2023-05-10T09:03:00;9.90;;;2.55;;
28170;SDS011;15458;53.346;-1.688;2023-05-10T09:05:28;8.00;;;2.05;;
28170;SDS011;15458;53.346;-1.688;2023-05-10T09:07:53;7.38;;;2.03;;
28170;SDS011;15458;53.346;-1.688;2023-05-10T09:10:19;9.52;;;2.53;;
28170;SDS011;15458;53.346;-1.688;2023-05-10T09:12:46;6.32;;;2.50;;
28170;SDS011;15458;53.346;-1.688;2023-05-10T09:15:14;9.85;;;2.78;;
28170;SDS011;15458;53.346;-1.688;2023-05-10T09:17:41;6.68;;;2.40;;
28170;SDS011;15458;53.346;-1.688;2023-05-10T09:20:08;6.15;;;2.80;;
28170;SDS011;15458;53.346;-1.688;2023-05-10T09:22:34;6.95;;;3.00;;
28170;SDS011;15458;53.346;-1.688;2023-05-10T09:25:10;9.80;;;3.20;;
28170;SDS011;15458;53.346;-1.688;2023-05-10T09:27:41;7.00;;;2.30;;
28170;SDS011;15458;53.346;-1.688;2023-05-10T09:30:10;6.73;;;2.30;;
28170;SDS011;15458;53.346;-1.688;2023-05-10T09:32:41;3.85;;;2.10;;
28170;SDS011;15458;53.346;-1.688;2023-05-10T09:35:09;5.72;;;2.25;;
28170;SDS011;15458;53.346;-1.688;2023-05-10T09:37:35;7.85;;;2.35;;
28170;SDS011;15458;53.346;-1.688;2023-05-10T09:40:03;5.40;;;2.20;;
28170;SDS011;15458;53.346;-1.688;2023-05-10T09:42:31;6.97;;;2.50;;
28170;SDS011;15458;53.346;-1.688;2023-05-10T09:45:00;7.10;;;2.38;;
28170;SDS011;15458;53.346;-1.688;2023-05-10T09:49:52;2.88;;;1.70;;
28170;SDS011;15458;53.346;-1.688;2023-05-10T09:52:22;11.52;;;2.90;;
28170;SDS011;15458;53.346;-1.688;2023-05-10T09:54:54;4.85;;;2.03;;
28170;SDS011;15458;53.346;-1.688;2023-05-10T09:57:20;4.97;;;1.92;;
28170;SDS011;15458;53.346;-1.688;2023-05-10T09:59:47;4.93;;;2.10;;
28170;SDS011;15458;53.346;-1.688;2023-05-10T10:02:13;3.22;;;1.90;;
28170;SDS011;15458;53.346;-1.688;2023-05-10T10:04:39;5.85;;;2.13;;
28170;SDS011;15458;53.346;-1.688;2023-05-10T10:07:05;6.45;;;2.28;;
28170;SDS011;15458;53.346;-1.688;2023-05-10T10:09:31;4.55;;;2.03;;
28170;SDS011;15458;53.346;-1.688;2023-05-10T10:11:59;3.20;;;1.70;;
28170;SDS011;15458;53.346;-1.688;2023-05-10T10:14:25;4.32;;;1.50;;
28170;SDS011;15458;53.346;-1.688;2023-05-10T10:16:51;5.55;;;1.50;;
28170;SDS011;15458;53.346;-1.688;2023-05-10T10:19:20;5.53;;;2.08;;
28170;SDS011;15458;53.346;-1.688;2023-05-10T10:21:47;3.03;;;1.60;;
28170;SDS011;15458;53.346;-1.688;2023-05-10T10:24:14;3.03;;;1.60;;
28170;SDS011;15458;53.346;-1.688;2023-05-10T10:26:39;3.22;;;1.42;;
28170;SDS011;15458;53.346;-1.688;2023-05-10T10:29:10;5.30;;;1.55;;
28170;SDS011;15458;53.346;-1.688;2023-05-10T10:34:33;4.32;;;1.90;;
28170;SDS011;15458;53.346;-1.688;2023-05-10T10:37:03;6.85;;;2.15;;
28170;SDS011;15458;53.346;-1.688;2023-05-10T10:39:30;5.55;;;2.20;;
28170;SDS011;15458;53.346;-1.688;2023-05-10T10:41:56;5.15;;;2.35;;
28170;SDS011;15458;53.346;-1.688;2023-05-10T10:54:52;5.90;;;2.80;;
28170;SDS011;15458;53.346;-1.688;2023-05-10T10:57:22;5.72;;;2.55;;
28170;SDS011;15458;53.346;-1.688;2023-05-10T10:59:48;4.55;;;2.63;;
28170;SDS011;15458;53.346;-1.688;2023-05-10T11:02:33;4.60;;;2.30;;
28170;SDS011;15458;53.346;-1.688;2023-05-10T11:07:56;4.45;;;2.40;;
28170;SDS011;15458;53.346;-1.688;2023-05-10T11:10:23;3.45;;;2.03;;
28170;SDS011;15458;53.346;-1.688;2023-05-10T11:12:54;2.40;;;1.55;;
28170;SDS011;15458;53.346;-1.688;2023-05-10T11:15:35;3.38;;;1.63;;
28170;SDS011;15458;53.346;-1.688;2023-05-10T11:18:17;2.55;;;1.42;;
28170;SDS011;15458;53.346;-1.688;2023-05-10T11:20:49;2.22;;;1.10;;
28170;SDS011;15458;53.346;-1.688;2023-05-10T11:23:16;3.75;;;1.42;;
28170;SDS011;15458;53.346;-1.688;2023-05-10T11:25:43;1.33;;;1.13;;
28170;SDS011;15458;53.346;-1.688;2023-05-10T11:28:09;4.45;;;1.20;;
28170;SDS011;15458;53.346;-1.688;2023-05-10T11:30:36;2.78;;;1.50;;
28170;SDS011;15458;53.346;-1.688;2023-05-10T11:33:06;5.53;;;1.50;;
28170;SDS011;15458;53.346;-1.688;2023-05-10T11:35:39;3.17;;;1.70;;
28170;SDS011;15458;53.346;-1.688;2023-05-10T11:38:08;3.67;;;1.60;;
28170;SDS011;15458;53.346;-1.688;2023-05-10T11:40:35;3.83;;;1.10;;
28170;SDS011;15458;53.346;-1.688;2023-05-10T11:43:02;3.30;;;1.00;;
28170;SDS011;15458;53.346;-1.688;2023-05-10T11:45:28;2.22;;;1.10;;
28170;SDS011;15458;53.346;-1.688;2023-05-10T11:47:57;4.85;;;1.20;;
28170;SDS011;15458;53.346;-1.688;2023-05-10T11:50:23;2.67;;;1.20;;
28170;SDS011;15458;53.346;-1.688;2023-05-10T11:52:55;3.88;;;1.27;;
28170;SDS011;15458;53.346;-1.688;2023-05-10T11:55:22;1.88;;;0.80;;
28170;SDS011;15458;53.346;-1.688;2023-05-10T11:57:52;1.90;;;0.70;;
28170;SDS011;15458;53.346;-1.688;2023-05-10T12:00:18;0.32;;;0.30;;
28170;SDS011;15458;53.346;-1.688;2023-05-10T12:02:44;1.60;;;0.40;;
28170;SDS011;15458;53.346;-1.688;2023-05-10T12:05:10;2.17;;;0.38;;
28170;SDS011;15458;53.346;-1.688;2023-05-10T12:07:36;1.45;;;0.63;;
28170;SDS011;15458;53.346;-1.688;2023-05-10T12:10:08;0.47;;;0.20;;
28170;SDS011;15458;53.346;-1.688;2023-05-10T12:12:42;0.80;;;0.70;;
28170;SDS011;15458;53.346;-1.688;2023-05-10T12:15:12;1.27;;;0.52;;
28170;SDS011;15458;53.346;-1.688;2023-05-10T12:17:44;0.73;;;0.43;;
28170;SDS011;15458;53.346;-1.688;2023-05-10T12:20:20;0.93;;;0.65;;
28170;SDS011;15458;53.346;-1.688;2023-05-10T12:22:51;0.52;;;0.38;;
28170;SDS011;15458;53.346;-1.688;2023-05-10T12:25:18;0.40;;;0.40;;
28170;SDS011;15458;53.346;-1.688;2023-05-10T12:27:48;0.93;;;0.70;;
28170;SDS011;15458;53.346;-1.688;2023-05-10T12:30:19;1.15;;;0.63;;
28170;SDS011;15458;53.346;-1.688;2023-05-10T12:33:00;1.67;;;0.80;;
28170;SDS011;15458;53.346;-1.688;2023-05-10T12:35:33;0.98;;;0.80;;
28170;SDS011;15458;53.346;-1.688;2023-05-10T12:38:31;2.17;;;0.70;;
28170;SDS011;15458;53.346;-1.688;2023-05-10T12:40:59;0.93;;;0.88;;
28170;SDS011;15458;53.346;-1.688;2023-05-10T12:43:26;1.75;;;0.88;;
28170;SDS011;15458;53.346;-1.688;2023-05-10T12:45:52;2.03;;;0.80;;
28170;SDS011;15458;53.346;-1.688;2023-05-10T12:48:18;1.25;;;1.00;;
28170;SDS011;15458;53.346;-1.688;2023-05-10T12:50:45;2.15;;;1.00;;
28170;SDS011;15458;53.346;-1.688;2023-05-10T12:53:11;4.45;;;1.00;;
28170;SDS011;15458;53.346;-1.688;2023-05-10T12:55:38;0.75;;;0.60;;
28170;SDS011;15458;53.346;-1.688;2023-05-10T12:58:04;1.38;;;0.40;;
28170;SDS011;15458;53.346;-1.688;2023-05-10T13:00:30;3.83;;;1.20;;
28170;SDS011;15458;53.346;-1.688;2023-05-10T13:02:56;4.18;;;1.45;;
28170;SDS011;15458;53.346;-1.688;2023-05-10T13:05:21;2.38;;;1.02;;
28170;SDS011;15458;53.346;-1.688;2023-05-10T13:07:47;4.00;;;1.50;;
28170;SDS011;15458;53.346;-1.688;2023-05-10T13:10:13;5.35;;;0.93;;
28170;SDS011;15458;53.346;-1.688;2023-05-10T13:12:38;3.63;;;1.17;;
28170;SDS011;15458;53.346;-1.688;2023-05-10T13:15:04;1.98;;;1.10;;
28170;SDS011;15458;53.346;-1.688;2023-05-10T13:17:31;3.63;;;1.00;;
28170;SDS011;15458;53.346;-1.688;2023-05-10T13:19:57;3.60;;;1.33;;
28170;SDS011;15458;53.346;-1.688;2023-05-10T13:22:22;1.85;;;1.00;;
28170;SDS011;15458;53.346;-1.688;2023-05-10T13:24:48;2.45;;;1.25;;
28170;SDS011;15458;53.346;-1.688;2023-05-10T13:27:14;3.63;;;0.93;;
28170;SDS011;15458;53.346;-1.688;2023-05-10T13:29:40;1.02;;;0.77;;
28170;SDS011;15458;53.346;-1.688;2023-05-10T13:32:06;0.98;;;0.60;;
28170;SDS011;15458;53.346;-1.688;2023-05-10T13:34:31;1.50;;;0.70;;
28170;SDS011;15458;53.346;-1.688;2023-05-10T13:36:57;1.00;;;0.40;;
28170;SDS011;15458;53.346;-1.688;2023-05-10T13:39:23;1.85;;;0.50;;
28170;SDS011;15458;53.346;-1.688;2023-05-10T13:41:48;0.70;;;0.50;;
28170;SDS011;15458;53.346;-1.688;2023-05-10T13:44:14;0.63;;;0.63;;
28170;SDS011;15458;53.346;-1.688;2023-05-10T13:46:41;1.20;;;0.75;;
28170;SDS011;15458;53.346;-1.688;2023-05-10T13:49:10;0.90;;;0.80;;
28170;SDS011;15458;53.346;-1.688;2023-05-10T13:51:35;2.03;;;0.88;;
28170;SDS011;15458;53.346;-1.688;2023-05-10T13:54:01;1.40;;;0.80;;
28170;SDS011;15458;53.346;-1.688;2023-05-10T13:56:28;3.55;;;1.02;;
28170;SDS011;15458;53.346;-1.688;2023-05-10T13:58:53;0.93;;;0.63;;
28170;SDS011;15458;53.346;-1.688;2023-05-10T14:01:21;1.92;;;0.70;;
28170;SDS011;15458;53.346;-1.688;2023-05-10T14:03:47;2.72;;;0.90;;
28170;SDS011;15458;53.346;-1.688;2023-05-10T14:06:13;1.50;;;0.50;;
28170;SDS011;15458;53.346;-1.688;2023-05-10T14:08:38;1.65;;;0.70;;
28170;SDS011;15458;53.346;-1.688;2023-05-10T14:11:05;1.20;;;0.70;;
28170;SDS011;15458;53.346;-1.688;2023-05-10T14:13:30;1.42;;;0.60;;
28170;SDS011;15458;53.346;-1.688;2023-05-10T14:15:56;1.35;;;0.60;;
28170;SDS011;15458;53.346;-1.688;2023-05-10T14:18:23;2.00;;;0.57;;
28170;SDS011;15458;53.346;-1.688;2023-05-10T14:20:49;0.80;;;0.47;;
28170;SDS011;15458;53.346;-1.688;2023-05-10T14:23:15;0.47;;;0.43;;
28170;SDS011;15458;53.346;-1.688;2023-05-10T14:25:40;2.72;;;0.43;;
28170;SDS011;15458;53.346;-1.688;2023-05-10T14:28:06;0.85;;;0.50;;
28170;SDS011;15458;53.346;-1.688;2023-05-10T14:30:32;2.35;;;0.75;;
28170;SDS011;15458;53.346;-1.688;2023-05-10T14:32:59;0.85;;;0.57;;
28170;SDS011;15458;53.346;-1.688;2023-05-10T14:35:26;0.63;;;0.63;;
28170;SDS011;15458;53.346;-1.688;2023-05-10T14:37:52;1.85;;;1.00;;
28170;SDS011;15458;53.346;-1.688;2023-05-10T14:40:18;1.05;;;0.43;;
28170;SDS011;15458;53.346;-1.688;2023-05-10T14:42:43;0.68;;;0.30;;
28170;SDS011;15458;53.346;-1.688;2023-05-10T14:45:09;1.02;;;0.25;;
28170;SDS011;15458;53.346;-1.688;2023-05-10T14:47:36;1.35;;;0.50;;
28170;SDS011;15458;53.346;-1.688;2023-05-10T14:50:02;0.50;;;0.30;;
28170;SDS011;15458;53.346;-1.688;2023-05-10T14:52:28;1.30;;;0.20;;
28170;SDS011;15458;53.346;-1.688;2023-05-10T14:54:54;1.02;;;0.30;;
28170;SDS011;15458;53.346;-1.688;2023-05-10T14:57:20;1.33;;;0.45;;
28170;SDS011;15458;53.346;-1.688;2023-05-10T14:59:45;1.38;;;0.70;;
28170;SDS011;15458;53.346;-1.688;2023-05-10T15:02:11;1.42;;;1.20;;
28170;SDS011;15458;53.346;-1.688;2023-05-10T15:04:37;1.33;;;1.15;;